sensor_id;sensor_type;location;lat;lon;timestamp;temperature;humidity
20512;DHT22;10414;52.074;5.126;2022-07-17T00:01:18;16.50;99.70
20512;DHT22;10414;52.074;5.126;2022-07-17T00:03:46;16.30;99.80
20512;DHT22;10414;52.074;5.126;2022-07-17T00:06:14;16.10;99.90
20512;DHT22;10414;52.074;5.126;2022-07-17T00:08:41;16.30;99.90
20512;DHT22;10414;52.074;5.126;2022-07-17T00:11:08;16.30;99.90
20512;DHT22;10414;52.074;5.126;2022-07-17T00:13:35;16.40;99.90
20512;DHT22;10414;52.074;5.126;2022-07-17T00:16:02;16.40;99.90
20512;DHT22;10414;52.074;5.126;2022-07-17T00:18:29;16.60;99.80
20512;DHT22;10414;52.074;5.126;2022-07-17T00:20:56;16.60;99.40
20512;DHT22;10414;52.074;5.126;2022-07-17T00:23:24;16.60;99.20
20512;DHT22;10414;52.074;5.126;2022-07-17T00:25:51;16.60;99.00
20512;DHT22;10414;52.074;5.126;2022-07-17T00:28:18;16.50;99.10
20512;DHT22;10414;52.074;5.126;2022-07-17T00:30:45;16.60;99.20
20512;DHT22;10414;52.074;5.126;2022-07-17T00:33:11;16.60;99.10
20512;DHT22;10414;52.074;5.126;2022-07-17T00:35:38;16.60;99.00
20512;DHT22;10414;52.074;5.126;2022-07-17T00:38:05;16.60;99.10
20512;DHT22;10414;52.074;5.126;2022-07-17T00:40:33;16.50;99.20
20512;DHT22;10414;52.074;5.126;2022-07-17T00:43:00;16.60;99.60
20512;DHT22;10414;52.074;5.126;2022-07-17T00:45:27;16.60;99.90
20512;DHT22;10414;52.074;5.126;2022-07-17T00:47:56;16.80;99.90
20512;DHT22;10414;52.074;5.126;2022-07-17T00:50:25;16.70;99.40
20512;DHT22;10414;52.074;5.126;2022-07-17T00:52:53;16.50;99.40
20512;DHT22;10414;52.074;5.126;2022-07-17T00:55:20;16.40;99.60
20512;DHT22;10414;52.074;5.126;2022-07-17T00:57:49;16.40;99.60
20512;DHT22;10414;52.074;5.126;2022-07-17T01:00:17;16.30;99.60
20512;DHT22;10414;52.074;5.126;2022-07-17T01:02:45;16.30;99.70
20512;DHT22;10414;52.074;5.126;2022-07-17T01:05:13;16.20;99.80
20512;DHT22;10414;52.074;5.126;2022-07-17T01:07:40;16.20;99.90
20512;DHT22;10414;52.074;5.126;2022-07-17T01:10:08;16.40;99.90
20512;DHT22;10414;52.074;5.126;2022-07-17T01:12:35;16.60;99.90
20512;DHT22;10414;52.074;5.126;2022-07-17T01:15:04;16.70;99.90
20512;DHT22;10414;52.074;5.126;2022-07-17T01:17:32;16.70;99.90
20512;DHT22;10414;52.074;5.126;2022-07-17T01:20:01;16.70;99.90
20512;DHT22;10414;52.074;5.126;2022-07-17T01:22:29;16.70;99.90
20512;DHT22;10414;52.074;5.126;2022-07-17T01:24:56;16.70;99.90
20512;DHT22;10414;52.074;5.126;2022-07-17T01:27:23;16.80;99.90
20512;DHT22;10414;52.074;5.126;2022-07-17T01:29:50;16.50;99.90
20512;DHT22;10414;52.074;5.126;2022-07-17T01:32:17;16.40;99.90
20512;DHT22;10414;52.074;5.126;2022-07-17T01:34:44;16.40;99.90
20512;DHT22;10414;52.074;5.126;2022-07-17T01:37:11;16.10;99.90
20512;DHT22;10414;52.074;5.126;2022-07-17T01:39:39;15.80;99.90
20512;DHT22;10414;52.074;5.126;2022-07-17T01:42:22;15.30;99.90
20512;DHT22;10414;52.074;5.126;2022-07-17T01:44:49;15.60;99.90
20512;DHT22;10414;52.074;5.126;2022-07-17T01:47:17;15.70;99.90
20512;DHT22;10414;52.074;5.126;2022-07-17T01:49:44;15.70;99.90
20512;DHT22;10414;52.074;5.126;2022-07-17T01:52:11;15.70;99.90
20512;DHT22;10414;52.074;5.126;2022-07-17T01:54:40;15.70;99.90
20512;DHT22;10414;52.074;5.126;2022-07-17T01:57:07;15.50;99.90
20512;DHT22;10414;52.074;5.126;2022-07-17T01:59:35;15.60;99.90
20512;DHT22;10414;52.074;5.126;2022-07-17T02:02:02;15.60;99.90
20512;DHT22;10414;52.074;5.126;2022-07-17T02:04:30;15.50;99.90
20512;DHT22;10414;52.074;5.126;2022-07-17T02:06:57;15.50;99.90
20512;DHT22;10414;52.074;5.126;2022-07-17T02:09:24;15.50;99.90
20512;DHT22;10414;52.074;5.126;2022-07-17T02:11:52;15.50;99.90
20512;DHT22;10414;52.074;5.126;2022-07-17T02:14:19;15.50;99.90
20512;DHT22;10414;52.074;5.126;2022-07-17T02:16:46;15.60;99.90
20512;DHT22;10414;52.074;5.126;2022-07-17T02:19:13;15.30;99.90
20512;DHT22;10414;52.074;5.126;2022-07-17T02:21:40;15.20;99.90
20512;DHT22;10414;52.074;5.126;2022-07-17T02:24:07;15.30;99.90
20512;DHT22;10414;52.074;5.126;2022-07-17T02:26:34;15.30;99.90
20512;DHT22;10414;52.074;5.126;2022-07-17T02:29:02;15.40;99.90
20512;DHT22;10414;52.074;5.126;2022-07-17T02:31:29;15.50;99.90
20512;DHT22;10414;52.074;5.126;2022-07-17T02:33:56;15.40;99.90
20512;DHT22;10414;52.074;5.126;2022-07-17T02:36:23;15.10;99.90
20512;DHT22;10414;52.074;5.126;2022-07-17T02:38:50;14.60;99.90
20512;DHT22;10414;52.074;5.126;2022-07-17T02:41:17;14.60;99.90
20512;DHT22;10414;52.074;5.126;2022-07-17T02:43:44;14.80;99.90
20512;DHT22;10414;52.074;5.126;2022-07-17T02:46:12;14.50;99.90
20512;DHT22;10414;52.074;5.126;2022-07-17T02:48:40;14.40;99.90
20512;DHT22;10414;52.074;5.126;2022-07-17T02:51:07;14.60;99.90
20512;DHT22;10414;52.074;5.126;2022-07-17T02:53:33;14.70;99.90
20512;DHT22;10414;52.074;5.126;2022-07-17T02:56:00;14.80;99.90
20512;DHT22;10414;52.074;5.126;2022-07-17T02:58:27;14.80;99.90
20512;DHT22;10414;52.074;5.126;2022-07-17T03:00:54;14.80;99.90
20512;DHT22;10414;52.074;5.126;2022-07-17T03:03:23;14.90;99.90
20512;DHT22;10414;52.074;5.126;2022-07-17T03:05:50;15.00;99.90
20512;DHT22;10414;52.074;5.126;2022-07-17T03:08:17;15.20;99.90
20512;DHT22;10414;52.074;5.126;2022-07-17T03:10:43;15.20;99.90
20512;DHT22;10414;52.074;5.126;2022-07-17T03:13:10;15.20;99.90
20512;DHT22;10414;52.074;5.126;2022-07-17T03:15:37;15.20;99.90
20512;DHT22;10414;52.074;5.126;2022-07-17T03:18:04;15.00;99.90
20512;DHT22;10414;52.074;5.126;2022-07-17T03:20:32;14.90;99.90
20512;DHT22;10414;52.074;5.126;2022-07-17T03:22:59;14.90;99.90
20512;DHT22;10414;52.074;5.126;2022-07-17T03:25:26;14.90;99.90
20512;DHT22;10414;52.074;5.126;2022-07-17T03:27:53;14.70;99.90
20512;DHT22;10414;52.074;5.126;2022-07-17T03:30:20;14.60;99.90
20512;DHT22;10414;52.074;5.126;2022-07-17T03:32:47;14.60;99.90
20512;DHT22;10414;52.074;5.126;2022-07-17T03:35:14;14.70;99.90
20512;DHT22;10414;52.074;5.126;2022-07-17T03:37:43;14.40;99.90
20512;DHT22;10414;52.074;5.126;2022-07-17T03:40:10;14.50;99.90
20512;DHT22;10414;52.074;5.126;2022-07-17T03:42:38;14.70;99.90
20512;DHT22;10414;52.074;5.126;2022-07-17T03:45:05;14.70;99.90
20512;DHT22;10414;52.074;5.126;2022-07-17T03:47:33;14.80;99.90
20512;DHT22;10414;52.074;5.126;2022-07-17T03:50:00;14.90;99.90
20512;DHT22;10414;52.074;5.126;2022-07-17T03:52:27;15.00;99.90
20512;DHT22;10414;52.074;5.126;2022-07-17T03:54:55;15.10;99.90
20512;DHT22;10414;52.074;5.126;2022-07-17T03:57:22;15.20;99.90
20512;DHT22;10414;52.074;5.126;2022-07-17T03:59:49;15.30;99.90
20512;DHT22;10414;52.074;5.126;2022-07-17T04:02:16;15.30;99.90
20512;DHT22;10414;52.074;5.126;2022-07-17T04:04:42;15.10;99.90
20512;DHT22;10414;52.074;5.126;2022-07-17T04:07:09;15.40;99.90
20512;DHT22;10414;52.074;5.126;2022-07-17T04:09:52;15.60;99.90
20512;DHT22;10414;52.074;5.126;2022-07-17T04:12:21;15.80;99.90
20512;DHT22;10414;52.074;5.126;2022-07-17T04:14:48;16.00;99.90
20512;DHT22;10414;52.074;5.126;2022-07-17T04:17:16;16.10;99.90
20512;DHT22;10414;52.074;5.126;2022-07-17T04:19:43;16.10;99.90
20512;DHT22;10414;52.074;5.126;2022-07-17T04:22:10;16.20;99.90
20512;DHT22;10414;52.074;5.126;2022-07-17T04:24:37;16.10;99.90
20512;DHT22;10414;52.074;5.126;2022-07-17T04:27:04;15.70;99.90
20512;DHT22;10414;52.074;5.126;2022-07-17T04:29:33;15.60;99.90
20512;DHT22;10414;52.074;5.126;2022-07-17T04:31:59;15.80;99.90
20512;DHT22;10414;52.074;5.126;2022-07-17T04:34:26;15.80;99.90
20512;DHT22;10414;52.074;5.126;2022-07-17T04:36:53;16.00;99.90
20512;DHT22;10414;52.074;5.126;2022-07-17T04:39:20;16.30;99.90
20512;DHT22;10414;52.074;5.126;2022-07-17T04:41:48;17.00;99.10
20512;DHT22;10414;52.074;5.126;2022-07-17T04:44:15;18.20;97.00
20512;DHT22;10414;52.074;5.126;2022-07-17T04:46:44;18.60;95.70
20512;DHT22;10414;52.074;5.126;2022-07-17T04:49:11;19.90;93.80
20512;DHT22;10414;52.074;5.126;2022-07-17T04:51:38;20.50;92.20
20512;DHT22;10414;52.074;5.126;2022-07-17T04:54:06;20.80;91.90
20512;DHT22;10414;52.074;5.126;2022-07-17T04:56:33;21.60;90.80
20512;DHT22;10414;52.074;5.126;2022-07-17T04:59:00;21.60;89.60
20512;DHT22;10414;52.074;5.126;2022-07-17T05:01:27;21.60;90.00
20512;DHT22;10414;52.074;5.126;2022-07-17T05:03:55;21.80;90.00
20512;DHT22;10414;52.074;5.126;2022-07-17T05:06:22;23.00;86.30
20512;DHT22;10414;52.074;5.126;2022-07-17T05:08:49;23.70;83.40
20512;DHT22;10414;52.074;5.126;2022-07-17T05:11:16;23.70;82.20
20512;DHT22;10414;52.074;5.126;2022-07-17T05:13:43;24.20;80.60
20512;DHT22;10414;52.074;5.126;2022-07-17T05:16:09;24.50;79.50
20512;DHT22;10414;52.074;5.126;2022-07-17T05:18:36;24.50;79.30
20512;DHT22;10414;52.074;5.126;2022-07-17T05:21:05;24.20;78.90
20512;DHT22;10414;52.074;5.126;2022-07-17T05:23:31;23.40;80.00
20512;DHT22;10414;52.074;5.126;2022-07-17T05:25:58;23.10;81.10
20512;DHT22;10414;52.074;5.126;2022-07-17T05:28:25;23.00;80.80
20512;DHT22;10414;52.074;5.126;2022-07-17T05:30:52;22.20;82.50
20512;DHT22;10414;52.074;5.126;2022-07-17T05:33:19;21.20;85.10
20512;DHT22;10414;52.074;5.126;2022-07-17T05:35:46;20.40;88.30
20512;DHT22;10414;52.074;5.126;2022-07-17T05:38:14;20.40;88.70
20512;DHT22;10414;52.074;5.126;2022-07-17T05:40:41;21.70;85.20
20512;DHT22;10414;52.074;5.126;2022-07-17T05:43:09;22.00;83.60
20512;DHT22;10414;52.074;5.126;2022-07-17T05:45:36;21.80;84.50
20512;DHT22;10414;52.074;5.126;2022-07-17T05:48:05;20.80;86.10
20512;DHT22;10414;52.074;5.126;2022-07-17T05:50:32;21.20;86.80
20512;DHT22;10414;52.074;5.126;2022-07-17T05:52:59;21.30;86.60
20512;DHT22;10414;52.074;5.126;2022-07-17T05:55:28;21.40;85.90
20512;DHT22;10414;52.074;5.126;2022-07-17T05:57:55;22.50;84.80
20512;DHT22;10414;52.074;5.126;2022-07-17T06:00:22;24.10;79.50
20512;DHT22;10414;52.074;5.126;2022-07-17T06:02:48;24.20;78.20
20512;DHT22;10414;52.074;5.126;2022-07-17T06:05:16;23.50;79.90
20512;DHT22;10414;52.074;5.126;2022-07-17T06:07:43;25.30;75.20
20512;DHT22;10414;52.074;5.126;2022-07-17T06:10:10;26.80;71.60
20512;DHT22;10414;52.074;5.126;2022-07-17T06:12:38;28.70;70.20
20512;DHT22;10414;52.074;5.126;2022-07-17T06:15:05;30.90;65.80
20512;DHT22;10414;52.074;5.126;2022-07-17T06:17:33;30.90;63.60
20512;DHT22;10414;52.074;5.126;2022-07-17T06:20:00;27.80;64.90
20512;DHT22;10414;52.074;5.126;2022-07-17T06:22:27;27.30;67.10
20512;DHT22;10414;52.074;5.126;2022-07-17T06:24:54;29.60;65.40
20512;DHT22;10414;52.074;5.126;2022-07-17T06:27:21;31.10;63.60
20512;DHT22;10414;52.074;5.126;2022-07-17T06:29:49;31.90;61.00
20512;DHT22;10414;52.074;5.126;2022-07-17T06:32:16;32.80;60.40
20512;DHT22;10414;52.074;5.126;2022-07-17T06:34:43;34.10;59.30
20512;DHT22;10414;52.074;5.126;2022-07-17T06:37:10;34.00;57.90
20512;DHT22;10414;52.074;5.126;2022-07-17T06:39:37;33.80;57.50
20512;DHT22;10414;52.074;5.126;2022-07-17T06:42:04;34.80;56.80
20512;DHT22;10414;52.074;5.126;2022-07-17T06:44:31;35.40;55.60
20512;DHT22;10414;52.074;5.126;2022-07-17T06:47:01;36.10;54.80
20512;DHT22;10414;52.074;5.126;2022-07-17T06:49:28;35.80;54.70
20512;DHT22;10414;52.074;5.126;2022-07-17T06:51:55;34.80;55.10
20512;DHT22;10414;52.074;5.126;2022-07-17T06:54:22;35.10;54.50
20512;DHT22;10414;52.074;5.126;2022-07-17T06:56:51;33.90;54.80
20512;DHT22;10414;52.074;5.126;2022-07-17T06:59:18;34.60;54.60
20512;DHT22;10414;52.074;5.126;2022-07-17T07:01:45;33.50;55.20
20512;DHT22;10414;52.074;5.126;2022-07-17T07:04:13;35.20;53.20
20512;DHT22;10414;52.074;5.126;2022-07-17T07:06:40;35.50;53.30
20512;DHT22;10414;52.074;5.126;2022-07-17T07:09:07;32.50;53.20
20512;DHT22;10414;52.074;5.126;2022-07-17T07:11:35;32.50;54.30
20512;DHT22;10414;52.074;5.126;2022-07-17T07:14:02;33.60;54.30
20512;DHT22;10414;52.074;5.126;2022-07-17T07:16:29;35.00;53.60
20512;DHT22;10414;52.074;5.126;2022-07-17T07:18:56;35.60;52.30
20512;DHT22;10414;52.074;5.126;2022-07-17T07:21:24;36.10;51.90
20512;DHT22;10414;52.074;5.126;2022-07-17T07:23:51;35.70;52.70
20512;DHT22;10414;52.074;5.126;2022-07-17T07:26:18;36.50;52.00
20512;DHT22;10414;52.074;5.126;2022-07-17T07:28:45;37.50;51.60
20512;DHT22;10414;52.074;5.126;2022-07-17T07:31:12;37.10;51.90
20512;DHT22;10414;52.074;5.126;2022-07-17T07:33:39;36.20;51.80
20512;DHT22;10414;52.074;5.126;2022-07-17T07:36:07;37.00;52.50
20512;DHT22;10414;52.074;5.126;2022-07-17T07:38:35;35.90;51.50
20512;DHT22;10414;52.074;5.126;2022-07-17T07:41:02;36.30;51.80
20512;DHT22;10414;52.074;5.126;2022-07-17T07:43:29;36.50;51.00
20512;DHT22;10414;52.074;5.126;2022-07-17T07:45:56;36.50;51.80
20512;DHT22;10414;52.074;5.126;2022-07-17T07:48:23;37.20;51.10
20512;DHT22;10414;52.074;5.126;2022-07-17T07:50:50;36.20;50.80
20512;DHT22;10414;52.074;5.126;2022-07-17T07:53:17;36.80;51.00
20512;DHT22;10414;52.074;5.126;2022-07-17T07:55:45;36.70;51.60
20512;DHT22;10414;52.074;5.126;2022-07-17T07:58:13;36.50;51.70
20512;DHT22;10414;52.074;5.126;2022-07-17T08:00:43;38.30;50.80
20512;DHT22;10414;52.074;5.126;2022-07-17T08:03:10;39.10;49.80
20512;DHT22;10414;52.074;5.126;2022-07-17T08:05:38;38.00;50.20
20512;DHT22;10414;52.074;5.126;2022-07-17T08:08:05;37.80;50.30
20512;DHT22;10414;52.074;5.126;2022-07-17T08:10:32;37.70;50.10
20512;DHT22;10414;52.074;5.126;2022-07-17T08:13:01;36.20;50.40
20512;DHT22;10414;52.074;5.126;2022-07-17T08:15:28;36.60;51.30
20512;DHT22;10414;52.074;5.126;2022-07-17T08:17:55;36.00;51.70
20512;DHT22;10414;52.074;5.126;2022-07-17T08:20:22;34.90;52.20
20512;DHT22;10414;52.074;5.126;2022-07-17T08:22:50;34.60;53.10
20512;DHT22;10414;52.074;5.126;2022-07-17T08:25:18;34.60;52.60
20512;DHT22;10414;52.074;5.126;2022-07-17T08:27:45;35.80;51.70
20512;DHT22;10414;52.074;5.126;2022-07-17T08:30:14;33.60;52.70
20512;DHT22;10414;52.074;5.126;2022-07-17T08:32:41;35.30;50.80
20512;DHT22;10414;52.074;5.126;2022-07-17T08:35:09;36.20;49.90
20512;DHT22;10414;52.074;5.126;2022-07-17T08:37:46;37.30;49.50
20512;DHT22;10414;52.074;5.126;2022-07-17T08:40:18;38.40;50.10
20512;DHT22;10414;52.074;5.126;2022-07-17T08:42:45;37.60;48.80
20512;DHT22;10414;52.074;5.126;2022-07-17T08:45:13;37.60;50.10
20512;DHT22;10414;52.074;5.126;2022-07-17T08:47:40;38.10;49.40
20512;DHT22;10414;52.074;5.126;2022-07-17T08:50:09;38.80;48.10
20512;DHT22;10414;52.074;5.126;2022-07-17T08:52:37;37.90;47.20
20512;DHT22;10414;52.074;5.126;2022-07-17T08:55:08;34.30;49.80
20512;DHT22;10414;52.074;5.126;2022-07-17T08:57:37;34.60;50.60
20512;DHT22;10414;52.074;5.126;2022-07-17T09:00:07;33.00;51.20
20512;DHT22;10414;52.074;5.126;2022-07-17T09:02:37;30.90;53.40
20512;DHT22;10414;52.074;5.126;2022-07-17T09:05:07;32.70;52.80
20512;DHT22;10414;52.074;5.126;2022-07-17T09:07:44;34.10;52.00
20512;DHT22;10414;52.074;5.126;2022-07-17T09:10:11;34.00;50.90
20512;DHT22;10414;52.074;5.126;2022-07-17T09:12:38;34.30;50.40
20512;DHT22;10414;52.074;5.126;2022-07-17T09:15:14;35.00;50.80
20512;DHT22;10414;52.074;5.126;2022-07-17T09:17:49;32.40;53.40
20512;DHT22;10414;52.074;5.126;2022-07-17T09:20:17;32.30;53.70
20512;DHT22;10414;52.074;5.126;2022-07-17T09:22:55;31.10;52.70
20512;DHT22;10414;52.074;5.126;2022-07-17T09:28:21;32.60;53.10
20512;DHT22;10414;52.074;5.126;2022-07-17T09:30:49;34.20;50.70
20512;DHT22;10414;52.074;5.126;2022-07-17T09:33:19;34.70;50.70
20512;DHT22;10414;52.074;5.126;2022-07-17T09:35:48;34.80;50.50
20512;DHT22;10414;52.074;5.126;2022-07-17T09:38:26;35.70;50.00
20512;DHT22;10414;52.074;5.126;2022-07-17T09:41:04;36.80;50.40
20512;DHT22;10414;52.074;5.126;2022-07-17T09:43:39;38.10;48.60
20512;DHT22;10414;52.074;5.126;2022-07-17T09:46:08;37.90;48.10
20512;DHT22;10414;52.074;5.126;2022-07-17T09:48:41;36.00;49.40
20512;DHT22;10414;52.074;5.126;2022-07-17T09:51:14;36.80;50.00
20512;DHT22;10414;52.074;5.126;2022-07-17T09:53:44;36.90;49.50
20512;DHT22;10414;52.074;5.126;2022-07-17T09:56:15;36.10;50.40
20512;DHT22;10414;52.074;5.126;2022-07-17T09:58:46;35.60;49.90
20512;DHT22;10414;52.074;5.126;2022-07-17T10:01:14;35.20;50.50
20512;DHT22;10414;52.074;5.126;2022-07-17T10:03:44;33.50;51.10
20512;DHT22;10414;52.074;5.126;2022-07-17T10:06:12;34.40;51.80
20512;DHT22;10414;52.074;5.126;2022-07-17T10:08:39;35.60;50.70
20512;DHT22;10414;52.074;5.126;2022-07-17T10:11:07;36.00;49.60
20512;DHT22;10414;52.074;5.126;2022-07-17T10:13:35;35.10;48.30
20512;DHT22;10414;52.074;5.126;2022-07-17T10:16:03;34.30;50.40
20512;DHT22;10414;52.074;5.126;2022-07-17T10:18:35;34.10;51.30
20512;DHT22;10414;52.074;5.126;2022-07-17T10:21:14;35.00;50.90
20512;DHT22;10414;52.074;5.126;2022-07-17T10:23:42;35.00;50.90
20512;DHT22;10414;52.074;5.126;2022-07-17T10:26:09;36.30;50.80
20512;DHT22;10414;52.074;5.126;2022-07-17T10:28:39;37.10;49.40
20512;DHT22;10414;52.074;5.126;2022-07-17T10:31:06;36.70;50.20
20512;DHT22;10414;52.074;5.126;2022-07-17T10:33:34;34.90;52.00
20512;DHT22;10414;52.074;5.126;2022-07-17T10:36:03;34.90;51.60
20512;DHT22;10414;52.074;5.126;2022-07-17T10:38:41;34.00;52.20
20512;DHT22;10414;52.074;5.126;2022-07-17T10:41:09;33.00;53.70
20512;DHT22;10414;52.074;5.126;2022-07-17T10:43:48;33.40;53.10
20512;DHT22;10414;52.074;5.126;2022-07-17T10:46:16;30.70;55.80
20512;DHT22;10414;52.074;5.126;2022-07-17T10:48:47;31.90;55.50
20512;DHT22;10414;52.074;5.126;2022-07-17T10:51:15;31.20;56.50
20512;DHT22;10414;52.074;5.126;2022-07-17T10:53:44;31.30;56.60
20512;DHT22;10414;52.074;5.126;2022-07-17T10:56:11;32.10;55.50
20512;DHT22;10414;52.074;5.126;2022-07-17T10:58:40;33.10;54.40
20512;DHT22;10414;52.074;5.126;2022-07-17T11:01:09;34.10;53.60
20512;DHT22;10414;52.074;5.126;2022-07-17T11:03:39;33.80;53.70
20512;DHT22;10414;52.074;5.126;2022-07-17T11:06:11;33.30;54.40
20512;DHT22;10414;52.074;5.126;2022-07-17T11:08:46;34.10;53.80
20512;DHT22;10414;52.074;5.126;2022-07-17T11:11:14;33.90;52.50
20512;DHT22;10414;52.074;5.126;2022-07-17T11:13:42;33.60;53.60
20512;DHT22;10414;52.074;5.126;2022-07-17T11:16:08;33.00;54.00
20512;DHT22;10414;52.074;5.126;2022-07-17T11:18:35;32.20;55.00
20512;DHT22;10414;52.074;5.126;2022-07-17T11:21:04;32.70;55.00
20512;DHT22;10414;52.074;5.126;2022-07-17T11:23:33;32.40;55.40
20512;DHT22;10414;52.074;5.126;2022-07-17T11:26:03;33.20;54.30
20512;DHT22;10414;52.074;5.126;2022-07-17T11:28:42;32.50;54.50
20512;DHT22;10414;52.074;5.126;2022-07-17T11:31:19;31.40;55.80
20512;DHT22;10414;52.074;5.126;2022-07-17T11:33:52;30.40;57.00
20512;DHT22;10414;52.074;5.126;2022-07-17T11:36:21;29.10;58.90
20512;DHT22;10414;52.074;5.126;2022-07-17T11:38:48;28.50;59.40
20512;DHT22;10414;52.074;5.126;2022-07-17T11:41:17;29.20;59.00
20512;DHT22;10414;52.074;5.126;2022-07-17T11:43:44;30.40;58.20
20512;DHT22;10414;52.074;5.126;2022-07-17T11:46:12;30.60;55.70
20512;DHT22;10414;52.074;5.126;2022-07-17T11:48:41;29.60;55.70
20512;DHT22;10414;52.074;5.126;2022-07-17T11:51:08;29.70;56.70
20512;DHT22;10414;52.074;5.126;2022-07-17T11:53:36;30.90;56.00
20512;DHT22;10414;52.074;5.126;2022-07-17T11:56:04;29.50;56.80
20512;DHT22;10414;52.074;5.126;2022-07-17T11:58:42;29.20;57.20
20512;DHT22;10414;52.074;5.126;2022-07-17T12:01:10;30.00;56.70
20512;DHT22;10414;52.074;5.126;2022-07-17T12:03:37;30.70;55.50
20512;DHT22;10414;52.074;5.126;2022-07-17T12:06:04;29.70;56.70
20512;DHT22;10414;52.074;5.126;2022-07-17T12:08:31;29.70;56.20
20512;DHT22;10414;52.074;5.126;2022-07-17T12:11:03;30.00;56.30
20512;DHT22;10414;52.074;5.126;2022-07-17T12:13:49;30.00;58.90
20512;DHT22;10414;52.074;5.126;2022-07-17T12:16:22;30.50;56.10
20512;DHT22;10414;52.074;5.126;2022-07-17T12:19:02;30.10;57.20
20512;DHT22;10414;52.074;5.126;2022-07-17T12:21:31;30.20;57.30
20512;DHT22;10414;52.074;5.126;2022-07-17T12:24:01;30.50;58.10
20512;DHT22;10414;52.074;5.126;2022-07-17T12:26:29;30.60;56.50
20512;DHT22;10414;52.074;5.126;2022-07-17T12:28:57;29.20;57.10
20512;DHT22;10414;52.074;5.126;2022-07-17T12:31:25;28.60;59.00
20512;DHT22;10414;52.074;5.126;2022-07-17T12:33:53;27.70;59.60
20512;DHT22;10414;52.074;5.126;2022-07-17T12:36:21;27.60;60.10
20512;DHT22;10414;52.074;5.126;2022-07-17T12:38:48;27.70;60.20
20512;DHT22;10414;52.074;5.126;2022-07-17T12:41:15;28.00;60.50
20512;DHT22;10414;52.074;5.126;2022-07-17T12:43:42;28.20;58.40
20512;DHT22;10414;52.074;5.126;2022-07-17T12:46:12;28.20;59.40
20512;DHT22;10414;52.074;5.126;2022-07-17T12:48:39;27.80;58.90
20512;DHT22;10414;52.074;5.126;2022-07-17T12:51:09;27.50;59.50
20512;DHT22;10414;52.074;5.126;2022-07-17T12:53:39;27.20;60.50
20512;DHT22;10414;52.074;5.126;2022-07-17T12:56:07;26.50;60.60
20512;DHT22;10414;52.074;5.126;2022-07-17T12:58:34;26.20;61.70
20512;DHT22;10414;52.074;5.126;2022-07-17T13:01:01;26.30;60.80
20512;DHT22;10414;52.074;5.126;2022-07-17T13:03:29;26.30;60.40
20512;DHT22;10414;52.074;5.126;2022-07-17T13:05:56;26.00;61.10
20512;DHT22;10414;52.074;5.126;2022-07-17T13:08:23;26.40;60.80
20512;DHT22;10414;52.074;5.126;2022-07-17T13:10:50;26.90;59.80
20512;DHT22;10414;52.074;5.126;2022-07-17T13:13:17;26.70;59.20
20512;DHT22;10414;52.074;5.126;2022-07-17T13:15:43;26.80;59.80
20512;DHT22;10414;52.074;5.126;2022-07-17T13:18:10;26.80;59.50
20512;DHT22;10414;52.074;5.126;2022-07-17T13:20:39;26.40;59.40
20512;DHT22;10414;52.074;5.126;2022-07-17T13:23:07;26.30;60.50
20512;DHT22;10414;52.074;5.126;2022-07-17T13:25:34;26.50;60.40
20512;DHT22;10414;52.074;5.126;2022-07-17T13:28:01;26.40;59.70
20512;DHT22;10414;52.074;5.126;2022-07-17T13:30:27;26.20;60.20
20512;DHT22;10414;52.074;5.126;2022-07-17T13:32:54;26.00;60.70
20512;DHT22;10414;52.074;5.126;2022-07-17T13:35:22;25.90;61.20
20512;DHT22;10414;52.074;5.126;2022-07-17T13:37:50;25.90;61.20
20512;DHT22;10414;52.074;5.126;2022-07-17T13:40:17;26.50;60.40
20512;DHT22;10414;52.074;5.126;2022-07-17T13:42:45;27.00;60.20
20512;DHT22;10414;52.074;5.126;2022-07-17T13:45:12;26.70;61.70
20512;DHT22;10414;52.074;5.126;2022-07-17T13:47:39;26.70;61.90
20512;DHT22;10414;52.074;5.126;2022-07-17T13:50:06;26.70;61.40
20512;DHT22;10414;52.074;5.126;2022-07-17T13:52:33;26.90;61.90
20512;DHT22;10414;52.074;5.126;2022-07-17T13:55:03;27.30;61.20
20512;DHT22;10414;52.074;5.126;2022-07-17T13:57:30;27.50;60.70
20512;DHT22;10414;52.074;5.126;2022-07-17T13:59:57;27.60;61.20
20512;DHT22;10414;52.074;5.126;2022-07-17T14:02:24;27.70;58.60
20512;DHT22;10414;52.074;5.126;2022-07-17T14:04:51;27.70;59.10
20512;DHT22;10414;52.074;5.126;2022-07-17T14:07:18;27.70;58.50
20512;DHT22;10414;52.074;5.126;2022-07-17T14:09:45;27.50;58.20
20512;DHT22;10414;52.074;5.126;2022-07-17T14:12:13;26.90;57.90
20512;DHT22;10414;52.074;5.126;2022-07-17T14:14:40;27.10;58.30
20512;DHT22;10414;52.074;5.126;2022-07-17T14:17:07;27.30;57.70
20512;DHT22;10414;52.074;5.126;2022-07-17T14:19:34;27.10;57.70
20512;DHT22;10414;52.074;5.126;2022-07-17T14:22:02;27.30;58.00
20512;DHT22;10414;52.074;5.126;2022-07-17T14:24:29;27.20;57.70
20512;DHT22;10414;52.074;5.126;2022-07-17T14:26:55;27.00;58.30
20512;DHT22;10414;52.074;5.126;2022-07-17T14:29:24;26.80;58.70
20512;DHT22;10414;52.074;5.126;2022-07-17T14:31:51;26.70;57.90
20512;DHT22;10414;52.074;5.126;2022-07-17T14:34:18;26.50;57.30
20512;DHT22;10414;52.074;5.126;2022-07-17T14:36:45;26.60;55.40
20512;DHT22;10414;52.074;5.126;2022-07-17T14:39:12;26.60;55.50
20512;DHT22;10414;52.074;5.126;2022-07-17T14:41:39;26.70;53.80
20512;DHT22;10414;52.074;5.126;2022-07-17T14:44:08;26.90;53.00
20512;DHT22;10414;52.074;5.126;2022-07-17T14:46:36;27.10;55.40
20512;DHT22;10414;52.074;5.126;2022-07-17T14:49:03;27.00;55.40
20512;DHT22;10414;52.074;5.126;2022-07-17T14:51:29;27.00;56.10
20512;DHT22;10414;52.074;5.126;2022-07-17T14:53:56;27.00;56.40
20512;DHT22;10414;52.074;5.126;2022-07-17T14:56:23;27.10;56.60
20512;DHT22;10414;52.074;5.126;2022-07-17T14:58:50;27.30;57.70
20512;DHT22;10414;52.074;5.126;2022-07-17T15:01:17;27.40;57.50
20512;DHT22;10414;52.074;5.126;2022-07-17T15:03:45;27.40;57.50
20512;DHT22;10414;52.074;5.126;2022-07-17T15:06:12;27.80;56.30
20512;DHT22;10414;52.074;5.126;2022-07-17T15:08:39;27.90;56.10
20512;DHT22;10414;52.074;5.126;2022-07-17T15:11:06;27.80;56.90
20512;DHT22;10414;52.074;5.126;2022-07-17T15:13:33;27.70;57.80
20512;DHT22;10414;52.074;5.126;2022-07-17T15:16:00;27.60;56.10
20512;DHT22;10414;52.074;5.126;2022-07-17T15:18:27;27.50;56.70
20512;DHT22;10414;52.074;5.126;2022-07-17T15:20:55;27.70;56.10
20512;DHT22;10414;52.074;5.126;2022-07-17T15:23:22;27.70;56.80
20512;DHT22;10414;52.074;5.126;2022-07-17T15:25:48;27.70;57.70
20512;DHT22;10414;52.074;5.126;2022-07-17T15:28:16;27.70;58.20
20512;DHT22;10414;52.074;5.126;2022-07-17T15:30:43;27.50;58.20
20512;DHT22;10414;52.074;5.126;2022-07-17T15:33:09;27.10;59.20
20512;DHT22;10414;52.074;5.126;2022-07-17T15:35:36;27.10;59.80
20512;DHT22;10414;52.074;5.126;2022-07-17T15:38:05;26.90;59.20